createdAt,value
2023-04-19T00:07:20.651Z,16.88
2023-04-19T00:17:23.985Z,18.30
2023-04-19T00:27:25.975Z,17.90
2023-04-19T00:37:29.249Z,16.80
2023-04-19T00:47:31.281Z,16.98
2023-04-19T00:57:35.209Z,17.08
2023-04-19T01:07:37.185Z,17.48
2023-04-19T01:17:40.680Z,17.25
2023-04-19T01:27:43.993Z,16.42
2023-04-19T01:37:45.932Z,22.83
2023-04-19T01:47:49.226Z,16.80
2023-04-19T01:57:52.247Z,17.52
2023-04-19T02:07:57.285Z,25.17
2023-04-19T02:17:59.243Z,19.38
2023-04-19T02:28:02.596Z,19.15
2023-04-19T02:38:05.068Z,18.70
2023-04-19T02:48:08.499Z,20.13
2023-04-19T02:58:10.431Z,21.48
2023-04-19T03:08:13.696Z,22.48
2023-04-19T03:18:15.616Z,24.63
2023-04-19T03:28:18.960Z,26.17
2023-04-19T03:38:20.894Z,25.30
2023-04-19T03:48:24.206Z,23.63
2023-04-19T03:58:26.108Z,22.92
2023-04-19T04:08:29.401Z,26.63
2023-04-19T04:18:31.325Z,23.63
2023-04-19T04:28:34.695Z,26.13
2023-04-19T04:38:36.608Z,23.60
2023-04-19T04:48:39.917Z,26.23
2023-04-19T04:58:41.840Z,28.58
2023-04-19T05:08:45.936Z,28.08
2023-04-19T05:18:47.858Z,29.95
2023-04-19T05:28:51.209Z,27.98
2023-04-19T05:38:53.110Z,26.33
2023-04-19T05:48:56.414Z,26.30
2023-04-19T05:58:58.740Z,26.48
2023-04-19T06:09:02.035Z,26.63
2023-04-19T06:19:03.973Z,27.33
2023-04-19T06:29:07.269Z,24.80
2023-04-19T06:39:09.209Z,26.85
2023-04-19T06:49:12.502Z,26.85
2023-04-19T06:59:15.821Z,23.60
2023-04-19T07:09:19.184Z,23.42
2023-04-19T07:19:21.205Z,25.50
2023-04-19T07:29:24.529Z,24.02
2023-04-19T07:39:26.440Z,22.92
2023-04-19T07:49:29.763Z,22.60
2023-04-19T07:59:31.691Z,22.42
2023-04-19T08:09:35.631Z,23.02
2023-04-19T08:19:37.588Z,22.10
2023-04-19T08:29:40.925Z,21.13
2023-04-19T08:39:42.859Z,21.50
2023-04-19T08:59:51.373Z,22.63
2023-04-19T09:10:09.612Z,20.48
2023-04-19T09:20:12.063Z,21.42
2023-04-19T09:30:31.218Z,22.50
2023-04-19T09:40:36.702Z,19.63
2023-04-19T09:50:58.515Z,20.20
2023-04-19T10:01:14.098Z,17.08
2023-04-19T10:11:20.410Z,16.60
2023-04-19T10:21:22.577Z,18.00
2023-04-19T10:31:27.142Z,17.33
2023-04-19T10:41:57.285Z,15.02
2023-04-19T11:02:04.317Z,14.95
2023-04-19T11:12:11.201Z,13.07
2023-04-19T11:22:13.140Z,12.82
2023-04-19T11:32:16.612Z,13.45
2023-04-19T11:42:19.764Z,12.50
2023-04-19T11:52:24.462Z,13.35
2023-04-19T12:02:26.544Z,13.57
2023-04-19T12:12:48.685Z,14.07
2023-04-19T12:22:50.656Z,11.50
2023-04-19T12:32:55.540Z,11.48
2023-04-19T12:42:57.696Z,11.50
2023-04-19T12:53:01.377Z,12.57
2023-04-19T13:03:04.039Z,10.48
2023-04-19T13:13:07.482Z,10.85
2023-04-19T13:23:09.420Z,11.15
2023-04-19T13:33:12.713Z,11.25
2023-04-19T13:43:14.677Z,11.60
2023-04-19T13:53:17.987Z,11.93
2023-04-19T14:03:20.101Z,9.77
2023-04-19T14:13:23.575Z,9.88
2023-04-19T14:23:25.533Z,9.80
2023-04-19T14:33:28.891Z,9.75
2023-04-19T14:43:30.958Z,8.27
2023-04-19T14:53:34.285Z,7.97
2023-04-19T15:03:36.441Z,8.35
2023-04-19T15:13:40.529Z,7.90
2023-04-19T15:23:42.455Z,8.25
2023-04-19T15:33:45.845Z,8.15
2023-04-19T15:43:47.819Z,6.20
2023-04-19T15:53:51.224Z,6.63
2023-04-19T16:03:53.487Z,7.88
2023-04-19T16:13:57.053Z,5.90
2023-04-19T16:23:59.028Z,7.63
2023-04-19T16:34:02.364Z,7.68
2023-04-19T16:44:04.617Z,5.50
2023-04-19T16:54:07.964Z,6.78
2023-04-19T17:04:10.062Z,7.88
2023-04-19T17:14:13.456Z,5.05
2023-04-19T17:24:15.376Z,6.82
2023-04-19T17:34:18.709Z,6.53
2023-04-19T17:44:20.738Z,5.97
2023-04-19T17:54:24.091Z,7.28
2023-04-19T18:04:26.337Z,5.00
2023-04-19T18:14:29.783Z,7.78
2023-04-19T18:24:32.561Z,6.93
2023-04-19T18:34:35.927Z,6.13
2023-04-19T18:44:53.151Z,5.63
2023-04-19T18:54:57.767Z,6.78
2023-04-19T19:05:01.960Z,9.10
2023-04-19T19:15:07.326Z,6.00
2023-04-19T19:25:10.607Z,6.63
2023-04-19T19:35:14.126Z,5.13
2023-04-19T19:45:18.304Z,4.63
2023-04-19T19:55:22.810Z,5.82
2023-04-19T20:05:25.297Z,4.35
2023-04-19T20:15:29.025Z,3.58
2023-04-19T20:25:30.940Z,6.80
2023-04-19T20:35:34.293Z,6.55
2023-04-19T20:45:36.235Z,5.15
2023-04-19T20:55:39.780Z,3.08
2023-04-19T21:05:41.735Z,3.88
2023-04-19T21:15:45.026Z,3.88
2023-04-19T21:25:46.943Z,3.83
2023-04-19T21:35:50.245Z,4.40
2023-04-19T21:45:52.176Z,3.17
2023-04-19T21:55:55.586Z,3.60
2023-04-19T22:05:57.518Z,3.40
2023-04-19T22:16:00.877Z,3.33
2023-04-19T22:26:03.272Z,3.35
2023-04-19T22:36:07.689Z,3.20
2023-04-19T22:46:09.800Z,3.05
2023-04-19T22:56:13.178Z,4.50
2023-04-19T23:06:15.189Z,2.85
2023-04-19T23:16:18.597Z,3.20
2023-04-19T23:26:20.617Z,3.05
2023-04-19T23:36:23.909Z,3.20
2023-04-19T23:46:25.833Z,3.03
2023-04-19T23:56:29.191Z,2.95
